Time;durP1;ratioP1;P1;durP2;ratioP2;P2;SDS_P1;SDS_P2;PMS_P1;PMS_P2;Temp;Humidity;BMP_temperature;BMP_pressure;BME280_temperature;BME280_humidity;BME280_pressure;Samples;Min_cycle;Max_cycle;Signal;HPM_P1;HPM_P2
2023/05/07 04:01:05;;;;;;;3.45;3.15;;;9.50;99.90;;;;;;5700478;23;20540;-74
2023/05/07 04:03:32;;;;;;;3.03;2.83;;;9.50;99.90;;;;;;5030180;28;20217;-74
2023/05/07 04:05:59;;;;;;;4.40;3.22;;;9.60;99.90;;;;;;5017286;28;20215;-74
2023/05/07 04:08:25;;;;;;;4.57;3.28;;;9.60;99.90;;;;;;5012478;28;20214;-74
2023/05/07 04:10:56;;;;;;;4.43;4.10;;;9.60;99.90;;;;;;5012229;28;20238;-75
2023/05/07 04:13:22;;;;;;;11.02;3.78;;;9.60;99.90;;;;;;5036329;23;20211;-73
2023/05/07 04:15:49;;;;;;;8.15;4.82;;;9.60;99.90;;;;;;5011245;28;20231;-75
2023/05/07 04:18:17;;;;;;;3.10;3.00;;;9.60;99.90;;;;;;5011753;28;20210;-72
2023/05/07 04:20:44;;;;;;;2.65;1.95;;;9.60;99.90;;;;;;5012043;28;20261;-73
2023/05/07 04:23:11;;;;;;;3.33;1.95;;;9.60;99.90;;;;;;5011780;28;20560;-73
2023/05/07 04:25:37;;;;;;;3.53;3.33;;;9.60;99.90;;;;;;5011037;28;20257;-74
2023/05/07 04:28:05;;;;;;;4.22;3.00;;;9.60;99.90;;;;;;5011080;28;20698;-74
2023/05/07 04:30:32;;;;;;;2.50;2.40;;;9.60;99.90;;;;;;5011213;28;20234;-74
2023/05/07 04:32:59;;;;;;;2.35;1.98;;;9.60;99.90;;;;;;5011343;28;20222;-74
2023/05/07 04:35:27;;;;;;;6.68;3.40;;;9.60;99.90;;;;;;5010924;28;20231;-74
2023/05/07 04:37:53;;;;;;;3.90;3.42;;;9.60;99.90;;;;;;5011503;28;20589;-74
2023/05/07 04:40:20;;;;;;;4.43;4.00;;;9.60;99.90;;;;;;5006034;28;20277;-74
2023/05/07 04:42:47;;;;;;;4.72;4.20;;;9.70;99.90;;;;;;5011357;28;20560;-74
2023/05/07 04:45:14;;;;;;;5.53;5.22;;;9.70;99.90;;;;;;5022806;28;20227;-74
2023/05/07 04:47:41;;;;;;;4.28;3.88;;;9.70;99.90;;;;;;5019949;28;20238;-74
2023/05/07 04:50:09;;;;;;;4.50;3.88;;;9.70;99.90;;;;;;5015719;28;20314;-74
2023/05/07 04:52:37;;;;;;;4.80;4.28;;;9.70;99.90;;;;;;5011830;28;20218;-74
2023/05/07 04:55:04;;;;;;;3.47;3.15;;;9.70;99.90;;;;;;5011594;28;20231;-74
2023/05/07 04:57:31;;;;;;;3.70;3.50;;;9.70;99.90;;;;;;5012031;28;20506;-73
2023/05/07 04:59:58;;;;;;;3.15;2.15;;;9.80;99.90;;;;;;5011491;28;20737;-73
2023/05/07 05:02:25;;;;;;;2.80;2.55;;;9.80;99.90;;;;;;5011116;28;20215;-73
2023/05/07 05:04:51;;;;;;;2.75;2.65;;;9.70;99.90;;;;;;5010292;28;20305;-73
2023/05/07 05:07:18;;;;;;;5.65;4.80;;;9.80;99.90;;;;;;5010990;28;20223;-73
2023/05/07 05:09:46;;;;;;;2.67;2.05;;;9.80;99.90;;;;;;5011456;28;20436;-73
2023/05/07 05:12:13;;;;;;;1.73;1.65;;;9.80;99.90;;;;;;5011112;28;20710;-73
2023/05/07 05:14:40;;;;;;;4.95;2.45;;;9.80;99.90;;;;;;5010766;28;20239;-73
2023/05/07 05:17:06;;;;;;;3.50;3.03;;;9.80;99.90;;;;;;5010802;28;20215;-73
2023/05/07 05:19:33;;;;;;;2.45;2.35;;;9.80;99.90;;;;;;5011297;28;20537;-73
2023/05/07 05:22:00;;;;;;;3.50;3.20;;;9.80;99.90;;;;;;5011043;28;20222;-73
2023/05/07 05:24:27;;;;;;;4.30;3.30;;;9.80;99.90;;;;;;5010936;28;20223;-73
2023/05/07 05:26:55;;;;;;;4.95;3.38;;;9.80;99.90;;;;;;5011648;28;20231;-74
2023/05/07 05:29:22;;;;;;;4.28;2.67;;;9.80;99.90;;;;;;5012245;28;20258;-73
2023/05/07 05:31:49;;;;;;;2.85;2.75;;;9.90;99.90;;;;;;5010984;28;20222;-73
2023/05/07 05:34:17;;;;;;;2.20;2.10;;;9.90;99.90;;;;;;5009924;28;20490;-73
2023/05/07 05:36:44;;;;;;;2.95;2.25;;;9.90;99.90;;;;;;5011162;28;20283;-73
2023/05/07 05:39:11;;;;;;;2.22;1.92;;;9.90;99.90;;;;;;5010012;28;20215;-73
2023/05/07 05:41:37;;;;;;;2.47;2.38;;;9.90;99.90;;;;;;5010859;28;20207;-74
2023/05/07 05:44:05;;;;;;;2.75;2.55;;;9.90;99.90;;;;;;5010619;28;20598;-74
2023/05/07 05:46:32;;;;;;;2.80;2.60;;;9.90;99.90;;;;;;5010104;28;20211;-74
2023/05/07 05:48:59;;;;;;;3.00;2.67;;;9.90;99.90;;;;;;5010014;28;20206;-74
2023/05/07 05:51:26;;;;;;;2.80;2.60;;;9.90;99.90;;;;;;5010652;28;20526;-74
2023/05/07 05:53:53;;;;;;;3.15;2.90;;;10.00;99.90;;;;;;5009862;28;20707;-75
2023/05/07 05:56:21;;;;;;;2.30;2.20;;;10.00;99.90;;;;;;5010832;28;20370;-75
2023/05/07 05:58:47;;;;;;;3.78;3.28;;;10.00;99.90;;;;;;5011010;28;20302;-74
2023/05/07 06:01:15;;;;;;;2.55;2.35;;;10.00;99.90;;;;;;5009827;28;20207;-75
2023/05/07 06:03:42;;;;;;;1.58;1.48;;;10.00;99.90;;;;;;5009231;28;20231;-74
2023/05/07 06:06:09;;;;;;;3.42;2.70;;;10.00;99.90;;;;;;5010603;28;20317;-74
2023/05/07 06:08:35;;;;;;;3.63;3.28;;;10.00;99.90;;;;;;5010759;28;20231;-74
2023/05/07 06:11:03;;;;;;;3.38;3.10;;;10.00;99.90;;;;;;5010626;28;20211;-74
2023/05/07 06:13:29;;;;;;;5.63;3.10;;;10.10;99.90;;;;;;5009790;28;20249;-74
2023/05/07 06:15:56;;;;;;;4.70;3.22;;;10.10;99.90;;;;;;5009904;28;20227;-73
2023/05/07 06:18:24;;;;;;;3.70;3.40;;;10.10;99.90;;;;;;5010225;28;20203;-74
2023/05/07 06:20:52;;;;;;;3.97;3.65;;;10.10;99.90;;;;;;5010540;28;20257;-73
2023/05/07 06:23:18;;;;;;;2.00;1.90;;;10.10;99.90;;;;;;5009978;28;20219;-73
2023/05/07 06:25:50;;;;;;;4.45;3.10;;;10.20;99.90;;;;;;5010425;28;20207;-73
2023/05/07 06:28:17;;;;;;;1.77;1.77;;;10.20;99.90;;;;;;5010448;28;20686;-73
2023/05/07 06:30:44;;;;;;;3.15;2.95;;;10.20;99.90;;;;;;5009895;28;20214;-73
2023/05/07 06:33:11;;;;;;;13.50;2.90;;;10.20;99.90;;;;;;5010292;28;20269;-75
2023/05/07 06:35:39;;;;;;;3.40;3.20;;;10.20;99.90;;;;;;5010180;28;20231;-75
2023/05/07 06:38:06;;;;;;;2.95;2.58;;;10.20;99.90;;;;;;5010337;28;20210;-74
2023/05/07 06:40:33;;;;;;;3.17;3.08;;;10.20;99.90;;;;;;5010162;28;20207;-73
2023/05/07 06:42:59;;;;;;;3.90;2.65;;;10.30;99.90;;;;;;5010020;28;20208;-74
2023/05/07 06:45:26;;;;;;;3.58;3.25;;;10.30;99.90;;;;;;5009338;28;20242;-73
2023/05/07 06:47:53;;;;;;;2.92;2.72;;;10.40;99.90;;;;;;5009944;28;20241;-74
2023/05/07 06:50:20;;;;;;;4.88;2.25;;;10.30;99.90;;;;;;5010985;28;20215;-73
2023/05/07 06:52:48;;;;;;;5.60;2.33;;;10.30;99.90;;;;;;5013779;28;20215;-74
2023/05/07 06:55:15;;;;;;;4.90;3.55;;;10.40;99.90;;;;;;5013248;28;20767;-74
2023/05/07 06:57:42;;;;;;;2.70;2.53;;;10.40;99.90;;;;;;5013782;28;20207;-73
2023/05/07 07:00:10;;;;;;;2.28;2.28;;;10.40;99.90;;;;;;5013885;28;20211;-73
2023/05/07 07:02:37;;;;;;;3.88;2.90;;;10.40;99.90;;;;;;5012823;28;20213;-74
2023/05/07 07:05:04;;;;;;;3.97;1.50;;;10.50;99.90;;;;;;5013072;28;20561;-73
2023/05/07 07:07:31;;;;;;;2.90;2.75;;;10.50;99.90;;;;;;5013281;28;20618;-73
2023/05/07 07:10:00;;;;;;;2.58;2.38;;;10.50;99.90;;;;;;5013808;28;20221;-73
2023/05/07 07:12:26;;;;;;;2.20;2.10;;;10.60;99.90;;;;;;5013276;28;20207;-73
2023/05/07 07:14:53;;;;;;;3.25;2.75;;;10.50;99.90;;;;;;5012754;28;20235;-73
2023/05/07 07:17:20;;;;;;;2.60;2.25;;;10.50;99.90;;;;;;5013118;28;20234;-74
2023/05/07 07:19:46;;;;;;;3.22;3.00;;;10.60;99.90;;;;;;5013115;28;20253;-73
2023/05/07 07:22:13;;;;;;;2.92;1.95;;;10.60;99.90;;;;;;5013293;28;20664;-73
2023/05/07 07:24:40;;;;;;;2.85;2.40;;;10.60;99.90;;;;;;5012501;28;20246;-73
2023/05/07 07:27:08;;;;;;;3.35;3.10;;;10.60;99.90;;;;;;5013051;28;20649;-73
2023/05/07 07:29:35;;;;;;;3.72;3.53;;;10.70;99.90;;;;;;5013622;28;20211;-73
2023/05/07 07:32:01;;;;;;;3.35;3.20;;;10.70;99.90;;;;;;5012882;28;20243;-74
2023/05/07 07:34:28;;;;;;;3.30;2.90;;;10.70;99.90;;;;;;5012180;28;20232;-73
2023/05/07 07:36:56;;;;;;;3.78;3.58;;;10.80;99.90;;;;;;5012968;28;20207;-73
2023/05/07 07:39:22;;;;;;;2.92;2.58;;;10.80;99.90;;;;;;5012617;28;20207;-74
2023/05/07 07:41:49;;;;;;;2.60;2.60;;;10.80;99.90;;;;;;5013134;28;20207;-74
2023/05/07 07:44:17;;;;;;;2.20;2.10;;;10.90;99.90;;;;;;5012494;28;20256;-74
2023/05/07 07:46:44;;;;;;;2.70;2.50;;;10.90;99.90;;;;;;5012951;28;20214;-74
2023/05/07 07:49:11;;;;;;;1.55;1.50;;;10.90;99.90;;;;;;5012317;28;20231;-74
2023/05/07 07:51:38;;;;;;;3.35;3.15;;;10.90;99.90;;;;;;5012481;28;20692;-74
2023/05/07 07:54:05;;;;;;;2.40;2.20;;;11.00;99.90;;;;;;5012047;28;20319;-74
2023/05/07 07:56:34;;;;;;;4.00;3.80;;;11.00;99.90;;;;;;5012406;28;20207;-74
2023/05/07 07:59:00;;;;;;;3.90;3.45;;;11.10;99.90;;;;;;5012728;28;20297;-74
2023/05/07 08:01:30;;;;;;;3.65;3.55;;;11.10;99.90;;;;;;5012048;28;20262;-74
2023/05/07 08:03:58;;;;;;;2.88;2.05;;;11.10;99.90;;;;;;5011073;28;20242;-74
2023/05/07 08:06:25;;;;;;;2.38;2.20;;;11.20;99.90;;;;;;5012603;28;20271;-74
2023/05/07 08:08:52;;;;;;;4.75;2.72;;;11.20;99.90;;;;;;5012536;28;20249;-74
2023/05/07 08:11:19;;;;;;;2.60;2.47;;;11.30;99.90;;;;;;5012751;28;20310;-74
2023/05/07 08:13:47;;;;;;;3.13;2.88;;;11.30;99.90;;;;;;5011902;28;20241;-74
2023/05/07 08:16:14;;;;;;;4.03;3.17;;;11.20;99.90;;;;;;5011812;28;20215;-74
2023/05/07 08:18:42;;;;;;;2.05;2.05;;;11.20;99.90;;;;;;5011663;28;20207;-74
2023/05/07 08:21:09;;;;;;;3.35;2.92;;;11.10;99.90;;;;;;5012225;28;20647;-73
2023/05/07 08:23:36;;;;;;;1.40;1.40;;;11.20;99.90;;;;;;5011477;28;20292;-74
2023/05/07 08:26:02;;;;;;;3.75;2.50;;;11.30;99.90;;;;;;5012389;28;20250;-74
2023/05/07 08:28:29;;;;;;;4.05;3.75;;;11.30;99.90;;;;;;5012020;28;20239;-73
2023/05/07 08:30:59;;;;;;;4.63;3.58;;;11.30;99.90;;;;;;5011644;28;20214;-74
2023/05/07 08:33:26;;;;;;;3.58;3.22;;;11.40;99.90;;;;;;5011242;28;20239;-74
2023/05/07 08:35:54;;;;;;;3.15;3.05;;;11.50;99.90;;;;;;5012100;28;20210;-75
2023/05/07 08:38:21;;;;;;;4.00;3.80;;;11.50;99.90;;;;;;5012101;28;20211;-74
2023/05/07 08:40:48;;;;;;;2.90;2.70;;;11.50;99.90;;;;;;5011504;28;20695;-74
2023/05/07 08:43:15;;;;;;;2.72;2.63;;;11.50;99.90;;;;;;5011320;28;20546;-73
2023/05/07 08:45:42;;;;;;;3.38;3.05;;;11.40;99.90;;;;;;5011210;28;20215;-74
2023/05/07 08:48:16;;;;;;;4.38;3.97;;;11.40;99.90;;;;;;5011268;28;20231;-74
2023/05/07 08:50:43;;;;;;;3.60;3.40;;;11.50;99.90;;;;;;5011882;28;20237;-74
2023/05/07 08:53:11;;;;;;;3.60;3.00;;;11.50;99.90;;;;;;5011819;28;20241;-74
2023/05/07 08:55:37;;;;;;;19.40;3.83;;;11.60;99.90;;;;;;5011083;28;20285;-74
2023/05/07 08:58:04;;;;;;;3.10;2.80;;;11.60;99.90;;;;;;5011619;28;20207;-74
2023/05/07 09:00:31;;;;;;;3.28;3.17;;;11.70;99.90;;;;;;5011326;28;20246;-74
2023/05/07 09:02:58;;;;;;;4.07;3.92;;;11.70;99.90;;;;;;5012236;28;20583;-74
2023/05/07 09:05:24;;;;;;;3.35;3.17;;;11.80;99.90;;;;;;5011344;28;20289;-74
2023/05/07 09:07:51;;;;;;;4.00;3.05;;;11.90;99.90;;;;;;5011427;28;20725;-74
2023/05/07 09:10:21;;;;;;;5.20;3.28;;;11.90;99.90;;;;;;5011686;28;20207;-74
2023/05/07 09:12:47;;;;;;;3.45;2.22;;;11.90;99.90;;;;;;5011240;28;20215;-75
2023/05/07 09:15:14;;;;;;;2.78;2.40;;;11.90;99.90;;;;;;5010284;28;20261;-74
2023/05/07 09:17:42;;;;;;;3.45;3.13;;;11.80;99.90;;;;;;5010700;28;20263;-74
2023/05/07 09:20:09;;;;;;;2.50;2.30;;;11.80;99.90;;;;;;5011921;28;20640;-74
2023/05/07 09:22:37;;;;;;;2.55;2.45;;;11.90;99.90;;;;;;5011116;28;20465;-74
2023/05/07 09:25:05;;;;;;;3.58;3.40;;;12.00;99.90;;;;;;5010577;28;20558;-74
2023/05/07 09:27:33;;;;;;;4.27;3.20;;;12.10;99.90;;;;;;5010846;28;20660;-74
2023/05/07 09:30:00;;;;;;;3.13;3.03;;;12.20;99.90;;;;;;5011075;28;20470;-74
2023/05/07 09:32:27;;;;;;;3.43;3.20;;;12.10;99.90;;;;;;5011225;28;20477;-74
2023/05/07 09:34:54;;;;;;;2.57;2.37;;;12.10;99.90;;;;;;5010259;28;20568;-75
2023/05/07 09:37:21;;;;;;;4.70;3.30;;;12.20;99.90;;;;;;5011049;28;20571;-75
2023/05/07 09:39:49;;;;;;;4.50;4.07;;;12.10;99.90;;;;;;5010902;28;20222;-74
2023/05/07 09:42:16;;;;;;;2.78;2.67;;;12.10;99.90;;;;;;5003258;28;20963;-75
2023/05/07 09:44:45;;;;;;;3.15;3.05;;;12.10;99.90;;;;;;5010473;28;20731;-74
2023/05/07 09:47:15;;;;;;;3.73;3.43;;;12.20;99.90;;;;;;5010568;28;20668;-74
2023/05/07 09:49:47;;;;;;;2.10;2.00;;;12.20;99.90;;;;;;5010682;28;20493;-75
2023/05/07 09:52:14;;;;;;;5.05;3.80;;;12.30;99.90;;;;;;5010990;28;20596;-74
2023/05/07 09:54:43;;;;;;;3.20;2.90;;;12.30;99.90;;;;;;5010616;28;20297;-74
2023/05/07 09:57:12;;;;;;;2.00;1.90;;;12.40;99.90;;;;;;5011465;28;20465;-75
2023/05/07 09:59:39;;;;;;;3.03;2.38;;;12.40;99.90;;;;;;5010818;28;20637;-75
2023/05/07 10:02:10;;;;;;;4.27;3.23;;;12.40;99.90;;;;;;5010523;28;20211;-75
2023/05/07 10:04:37;;;;;;;4.43;4.03;;;12.40;99.90;;;;;;5009644;28;20481;-75
2023/05/07 10:07:05;;;;;;;2.53;2.43;;;12.40;99.90;;;;;;5010453;28;20540;-74
2023/05/07 10:09:32;;;;;;;4.57;2.90;;;12.40;99.90;;;;;;5010413;28;20853;-75
2023/05/07 10:12:00;;;;;;;3.37;3.10;;;12.50;99.90;;;;;;5010609;28;20567;-74
2023/05/07 10:14:28;;;;;;;2.40;2.20;;;12.50;99.90;;;;;;5010310;28;20497;-75
2023/05/07 10:16:55;;;;;;;2.53;2.30;;;12.50;99.90;;;;;;5010488;28;20512;-74
2023/05/07 10:19:24;;;;;;;3.40;3.10;;;12.60;99.90;;;;;;5010061;28;20462;-74
2023/05/07 10:21:56;;;;;;;2.33;2.23;;;12.70;99.90;;;;;;5010292;28;20978;-74
2023/05/07 10:24:27;;;;;;;2.13;2.03;;;12.70;99.90;;;;;;5010267;28;20489;-74
2023/05/07 10:26:56;;;;;;;3.80;3.07;;;12.60;99.90;;;;;;5013703;28;20915;-74
2023/05/07 10:29:32;;;;;;;3.10;2.80;;;12.70;99.90;;;;;;5014246;28;20486;-74
2023/05/07 10:32:07;;;;;;;2.90;2.63;;;12.80;99.90;;;;;;5013817;28;20461;-75
2023/05/07 10:34:39;;;;;;;2.53;2.40;;;12.80;99.90;;;;;;5013449;28;20543;-74
2023/05/07 10:37:07;;;;;;;4.57;3.30;;;12.70;99.90;;;;;;5014267;28;20473;-73
2023/05/07 10:39:33;;;;;;;2.47;2.30;;;12.80;99.90;;;;;;5014114;28;20465;-74
2023/05/07 10:42:09;;;;;;;4.57;2.77;;;12.80;99.90;;;;;;5014140;28;20950;-74
2023/05/07 10:44:37;;;;;;;2.70;2.50;;;12.90;99.90;;;;;;5013560;28;20929;-74
2023/05/07 10:47:11;;;;;;;2.50;2.40;;;13.00;99.90;;;;;;5013702;28;20461;-73
2023/05/07 10:50:18;;;;;;;1.70;1.70;;;13.10;99.90;;;;;;5013699;28;20489;-73
2023/05/07 10:52:44;;;;;;;2.90;2.70;;;13.10;99.90;;;;;;5013795;28;20465;-74
2023/05/07 10:55:22;;;;;;;2.87;2.67;;;13.00;99.90;;;;;;5013134;28;20482;-74
2023/05/07 10:57:48;;;;;;;2.60;2.50;;;12.90;99.90;;;;;;5014043;28;20476;-73
2023/05/07 11:00:43;;;;;;;3.43;3.13;;;12.90;99.90;;;;;;5014050;28;20462;-73
2023/05/07 11:03:10;;;;;;;3.60;1.80;;;13.00;99.90;;;;;;5013247;28;20544;-73
2023/05/07 11:05:39;;;;;;;2.60;2.50;;;13.10;99.90;;;;;;5012813;28;20995;-73
2023/05/07 11:08:06;;;;;;;3.10;2.83;;;13.20;99.90;;;;;;5013676;28;20778;-74
2023/05/07 11:10:52;;;;;;;2.97;2.60;;;13.20;99.90;;;;;;5013451;28;20466;-73
2023/05/07 11:13:39;;;;;;;3.03;2.83;;;13.20;99.90;;;;;;5012677;28;20480;-73
2023/05/07 11:16:18;;;;;;;5.93;3.10;;;13.30;99.90;;;;;;5012954;28;20462;-74
2023/05/07 11:18:49;;;;;;;3.10;2.77;;;13.40;99.90;;;;;;5013095;28;20585;-73
2023/05/07 11:21:32;;;;;;;10.90;4.90;;;13.50;99.90;;;;;;5013728;28;20659;-74
2023/05/07 11:24:00;;;;;;;2.93;2.73;;;13.70;99.90;;;;;;5012632;28;20555;-74
2023/05/07 11:26:32;;;;;;;2.80;2.70;;;13.80;99.90;;;;;;5012961;28;20474;-74
2023/05/07 11:29:00;;;;;;;1.67;1.67;;;13.90;99.90;;;;;;5013246;28;20723;-73
2023/05/07 11:31:29;;;;;;;4.00;2.80;;;13.90;99.90;;;;;;5012797;28;20846;-73
2023/05/07 11:33:56;;;;;;;3.50;3.20;;;14.00;99.90;;;;;;5012166;28;20481;-73
2023/05/07 11:36:24;;;;;;;2.20;2.13;;;14.20;99.90;;;;;;5012553;28;20470;-74
2023/05/07 11:38:51;;;;;;;2.13;1.80;;;14.20;99.90;;;;;;5012014;28;20465;-73
2023/05/07 11:41:19;;;;;;;1.57;1.57;;;14.20;99.90;;;;;;5013036;28;20812;-74
2023/05/07 11:43:59;;;;;;;1.50;1.50;;;14.40;99.90;;;;;;5012369;28;20593;-73
2023/05/07 11:46:29;;;;;;;1.83;1.80;;;14.50;99.90;;;;;;5012579;28;20473;-74
2023/05/07 11:48:56;;;;;;;2.20;2.20;;;14.60;99.90;;;;;;5012477;28;20486;-74
2023/05/07 11:51:25;;;;;;;2.20;2.10;;;14.70;99.90;;;;;;5012560;28;20461;-73
2023/05/07 11:53:52;;;;;;;2.00;1.70;;;14.60;99.90;;;;;;5012242;28;20486;-73
2023/05/07 11:56:19;;;;;;;1.50;1.50;;;14.60;99.90;;;;;;5012593;28;20478;-73
2023/05/07 11:58:48;;;;;;;5.03;2.60;;;14.70;99.90;;;;;;5012483;28;20461;-74
2023/05/07 12:01:15;;;;;;;2.00;2.00;;;14.80;99.90;;;;;;5012252;28;20492;-74
2023/05/07 12:03:45;;;;;;;1.63;1.53;;;15.00;99.90;;;;;;5011320;28;20521;-74
2023/05/07 12:06:12;;;;;;;2.07;1.93;;;14.90;99.90;;;;;;5012347;28;20988;-73
2023/05/07 12:08:40;;;;;;;2.67;2.00;;;14.90;99.90;;;;;;5012483;28;20481;-73
2023/05/07 12:11:09;;;;;;;3.50;2.50;;;14.90;99.90;;;;;;5012237;28;20959;-74
2023/05/07 12:13:36;;;;;;;3.33;2.60;;;14.80;99.90;;;;;;5011599;28;20466;-74
2023/05/07 12:16:04;;;;;;;1.97;1.97;;;14.80;99.90;;;;;;5011937;28;20473;-74
2023/05/07 12:18:32;;;;;;;2.57;2.47;;;14.80;99.90;;;;;;5011941;28;20458;-74
2023/05/07 12:21:00;;;;;;;2.67;2.00;;;14.90;99.90;;;;;;5012402;28;21025;-74
2023/05/07 12:23:27;;;;;;;1.30;1.30;;;14.90;99.90;;;;;;5012136;28;20512;-74
2023/05/07 12:25:54;;;;;;;1.50;1.50;;;14.70;99.90;;;;;;5012426;28;20529;-74
2023/05/07 12:28:21;;;;;;;2.17;1.93;;;14.70;99.90;;;;;;5012656;28;20515;-74
2023/05/07 12:30:49;;;;;;;2.30;1.93;;;14.70;99.90;;;;;;5012410;28;20532;-74
2023/05/07 12:33:17;;;;;;;1.60;1.60;;;14.80;99.90;;;;;;5011985;28;20953;-75
2023/05/07 12:35:45;;;;;;;2.23;2.23;;;14.90;99.90;;;;;;5012065;28;20470;-75
2023/05/07 12:38:14;;;;;;;1.27;1.27;;;14.90;99.90;;;;;;5011863;28;20661;-74
2023/05/07 12:40:42;;;;;;;1.97;1.87;;;15.10;99.90;;;;;;5005917;28;20461;-74
2023/05/07 12:43:15;;;;;;;1.80;1.80;;;15.30;99.90;;;;;;5011567;28;20469;-75
2023/05/07 12:45:43;;;;;;;1.67;1.57;;;15.50;99.90;;;;;;5011233;28;21002;-74
2023/05/07 12:48:11;;;;;;;1.30;1.30;;;15.50;99.90;;;;;;5011193;28;20831;-74
2023/05/07 12:50:38;;;;;;;1.90;1.80;;;15.30;99.90;;;;;;5011640;28;20493;-74
2023/05/07 12:53:05;;;;;;;2.23;1.53;;;15.50;99.90;;;;;;5011445;28;20954;-74
2023/05/07 12:55:40;;;;;;;1.73;1.73;;;15.70;99.90;;;;;;5011037;28;20490;-74
2023/05/07 12:58:07;;;;;;;1.43;1.43;;;15.80;99.90;;;;;;5011253;28;20473;-75
2023/05/07 13:00:36;;;;;;;10.03;2.00;;;16.00;99.90;;;;;;5010907;28;20473;-74
2023/05/07 13:03:03;;;;;;;1.70;1.70;;;16.20;99.90;;;;;;5010882;28;20466;-75
2023/05/07 13:05:29;;;;;;;1.73;1.73;;;16.30;99.90;;;;;;5011139;28;20512;-75
2023/05/07 13:07:57;;;;;;;3.03;1.83;;;16.40;99.90;;;;;;5011259;28;20466;-74
2023/05/07 13:10:24;;;;;;;2.73;2.00;;;16.60;99.90;;;;;;5011260;28;20508;-74
2023/05/07 13:12:52;;;;;;;1.37;1.37;;;16.50;99.90;;;;;;5011034;28;20472;-74
2023/05/07 13:15:19;;;;;;;2.07;1.97;;;16.50;99.90;;;;;;5010543;28;20517;-73
2023/05/07 13:17:45;;;;;;;1.37;1.37;;;16.70;99.90;;;;;;5010880;28;20462;-74
2023/05/07 13:20:13;;;;;;;1.00;1.00;;;16.90;99.90;;;;;;5011557;28;20461;-74
2023/05/07 13:22:40;;;;;;;0.90;0.90;;;16.80;99.90;;;;;;5011260;28;20461;-74
2023/05/07 13:25:08;;;;;;;1.00;1.00;;;16.90;99.90;;;;;;5010373;28;20489;-74
2023/05/07 13:27:36;;;;;;;1.53;1.30;;;17.00;99.90;;;;;;5011230;28;20466;-74
2023/05/07 13:30:05;;;;;;;1.83;1.73;;;17.10;99.90;;;;;;5011091;28;20496;-73
2023/05/07 13:32:32;;;;;;;1.07;1.07;;;17.10;99.90;;;;;;5010305;28;20588;-74
2023/05/07 13:34:59;;;;;;;2.20;2.07;;;17.20;99.90;;;;;;5010686;28;20845;-74
2023/05/07 13:37:25;;;;;;;0.77;0.77;;;17.20;99.90;;;;;;5011199;28;21171;-74
2023/05/07 13:39:52;;;;;;;0.80;0.80;;;17.10;99.90;;;;;;5004976;28;20878;-74
2023/05/07 13:42:19;;;;;;;0.90;0.90;;;17.10;99.90;;;;;;5010757;28;20528;-74
2023/05/07 13:44:45;;;;;;;1.00;1.00;;;17.20;99.90;;;;;;5010735;28;20488;-74
2023/05/07 13:47:14;;;;;;;1.27;1.27;;;17.20;99.90;;;;;;5010373;28;21014;-74
2023/05/07 13:49:41;;;;;;;1.47;1.47;;;17.20;99.90;;;;;;5010539;28;20986;-74
2023/05/07 13:52:07;;;;;;;2.83;1.20;;;17.30;99.90;;;;;;5010689;28;20468;-74
2023/05/07 13:54:34;;;;;;;2.00;1.90;;;17.20;99.90;;;;;;5010387;28;20490;-74
2023/05/07 13:57:01;;;;;;;0.80;0.80;;;17.10;99.90;;;;;;5011069;28;20473;-75
2023/05/07 13:59:28;;;;;;;0.90;0.90;;;17.10;99.90;;;;;;5010930;28;20497;-74
2023/05/07 14:01:55;;;;;;;1.20;1.20;;;17.30;99.90;;;;;;5013718;28;20468;-74
2023/05/07 14:04:23;;;;;;;2.00;1.40;;;17.30;99.90;;;;;;5013784;28;20577;-74
2023/05/07 14:06:50;;;;;;;2.30;0.90;;;17.20;99.90;;;;;;5014706;28;20462;-74
2023/05/07 14:09:16;;;;;;;0.80;0.80;;;17.10;99.90;;;;;;5014784;28;20521;-75
2023/05/07 14:11:43;;;;;;;1.20;1.20;;;17.00;99.90;;;;;;5014952;28;20523;-74
2023/05/07 14:14:11;;;;;;;1.20;1.20;;;17.00;99.90;;;;;;5013843;28;20489;-74
2023/05/07 14:16:38;;;;;;;3.20;1.47;;;17.00;99.90;;;;;;5013984;28;20509;-74
2023/05/07 14:19:04;;;;;;;1.43;1.43;;;16.90;99.90;;;;;;5014242;28;21024;-74
2023/05/07 14:21:32;;;;;;;1.27;1.13;;;17.00;99.90;;;;;;5014459;28;20473;-74
2023/05/07 14:23:59;;;;;;;1.30;1.30;;;17.00;99.90;;;;;;5013957;28;20547;-73
2023/05/07 14:26:27;;;;;;;1.23;1.23;;;17.00;99.90;;;;;;5014455;28;20965;-74
2023/05/07 14:28:55;;;;;;;1.23;1.13;;;17.10;99.90;;;;;;5014469;28;20549;-74
2023/05/07 14:31:22;;;;;;;1.10;1.10;;;17.20;99.90;;;;;;5013939;28;20572;-75
2023/05/07 14:33:49;;;;;;;1.20;1.03;;;17.30;99.90;;;;;;5013487;28;20540;-74
2023/05/07 14:36:16;;;;;;;1.33;0.87;;;17.50;99.90;;;;;;5014605;28;20469;-74
2023/05/07 14:38:44;;;;;;;1.27;1.27;;;17.60;99.90;;;;;;5014323;28;20509;-74
2023/05/07 14:41:11;;;;;;;0.50;0.50;;;17.70;99.90;;;;;;5014102;28;20802;-74
2023/05/07 14:43:38;;;;;;;1.33;1.33;;;17.80;99.90;;;;;;5013288;28;20473;-75
2023/05/07 14:46:04;;;;;;;1.60;1.60;;;17.80;99.90;;;;;;5013933;28;20462;-74
2023/05/07 14:48:31;;;;;;;0.97;0.97;;;17.90;99.90;;;;;;5013462;28;20477;-74
2023/05/07 14:50:58;;;;;;;1.47;1.47;;;18.00;99.90;;;;;;5014064;28;20497;-74
2023/05/07 14:53:25;;;;;;;1.10;1.00;;;18.00;99.90;;;;;;5013393;28;20470;-74
2023/05/07 14:55:53;;;;;;;0.83;0.83;;;18.00;99.90;;;;;;5014233;28;20468;-74
2023/05/07 14:58:19;;;;;;;1.13;1.13;;;18.00;99.90;;;;;;5013868;28;20466;-74
2023/05/07 15:00:46;;;;;;;0.83;0.83;;;18.00;99.90;;;;;;5013220;28;20493;-75
2023/05/07 15:03:13;;;;;;;1.23;1.23;;;18.00;99.90;;;;;;5012904;28;20685;-76
2023/05/07 15:05:39;;;;;;;0.50;0.50;;;18.10;99.90;;;;;;5013339;28;21001;-74
2023/05/07 15:08:06;;;;;;;1.63;1.53;;;18.10;99.90;;;;;;5013404;28;20950;-74
2023/05/07 15:10:40;;;;;;;1.50;1.20;;;18.20;99.90;;;;;;5013270;28;20863;-74
2023/05/07 15:13:08;;;;;;;1.23;1.23;;;17.90;99.90;;;;;;5013193;28;20565;-74
2023/05/07 15:15:35;;;;;;;1.50;1.50;;;17.70;99.90;;;;;;5012379;28;20564;-74
2023/05/07 15:18:02;;;;;;;1.50;1.40;;;17.70;99.90;;;;;;5013335;28;20552;-74
2023/05/07 15:20:29;;;;;;;1.47;1.37;;;17.80;99.90;;;;;;5013411;28;20480;-75
2023/05/07 15:22:55;;;;;;;1.53;1.43;;;17.70;99.90;;;;;;5013072;28;20985;-74
2023/05/07 15:25:22;;;;;;;1.07;1.07;;;17.70;99.90;;;;;;5013611;28;20569;-73
2023/05/07 15:27:49;;;;;;;1.10;1.10;;;17.80;99.90;;;;;;5013156;28;20466;-73
2023/05/07 15:30:19;;;;;;;0.87;0.87;;;17.90;99.90;;;;;;5013150;28;20513;-73
2023/05/07 15:32:47;;;;;;;0.97;0.97;;;17.90;99.90;;;;;;5012898;28;20453;-74
2023/05/07 15:35:14;;;;;;;0.80;0.80;;;17.80;99.90;;;;;;5012885;28;20557;-74
2023/05/07 15:37:40;;;;;;;0.80;0.80;;;17.80;99.90;;;;;;5013207;28;20505;-74
2023/05/07 15:40:09;;;;;;;0.77;0.77;;;17.80;99.90;;;;;;5013173;28;20512;-74
2023/05/07 15:42:35;;;;;;;0.87;0.87;;;17.90;99.90;;;;;;5012885;28;20520;-74
2023/05/07 15:45:02;;;;;;;0.40;0.40;;;17.80;99.90;;;;;;5012869;28;20485;-74
2023/05/07 15:47:34;;;;;;;1.00;1.00;;;17.80;99.90;;;;;;5012997;28;20470;-73
2023/05/07 15:50:00;;;;;;;0.93;0.93;;;17.70;99.90;;;;;;5013252;28;20486;-74
2023/05/07 15:52:28;;;;;;;0.90;0.90;;;17.60;99.90;;;;;;5012955;28;20465;-74
2023/05/07 15:54:55;;;;;;;1.17;1.17;;;17.50;99.90;;;;;;5012858;28;20482;-73
2023/05/07 15:57:21;;;;;;;0.97;0.97;;;17.40;99.90;;;;;;5013165;28;20561;-74
2023/05/07 15:59:48;;;;;;;0.70;0.70;;;17.40;99.90;;;;;;5013953;28;20469;-74
2023/05/07 16:02:15;;;;;;;0.80;0.80;;;17.30;99.90;;;;;;5013482;28;20923;-73
2023/05/07 16:04:43;;;;;;;2.13;1.30;;;17.30;99.90;;;;;;5012461;28;20490;-74
2023/05/07 16:07:09;;;;;;;0.93;0.93;;;17.20;99.90;;;;;;5012822;28;20468;-74
2023/05/07 16:09:36;;;;;;;1.10;1.10;;;17.20;99.90;;;;;;5012943;28;20473;-74
2023/05/07 16:12:03;;;;;;;1.20;1.20;;;17.10;99.90;;;;;;5012354;28;20466;-74
2023/05/07 16:14:30;;;;;;;1.30;1.30;;;17.10;99.90;;;;;;5013249;28;20584;-73
2023/05/07 16:16:57;;;;;;;0.60;0.60;;;17.10;99.90;;;;;;5014130;28;20466;-73
2023/05/07 16:19:23;;;;;;;0.90;0.90;;;17.00;99.90;;;;;;5014171;28;20480;-73
2023/05/07 16:21:51;;;;;;;1.10;1.10;;;17.00;99.90;;;;;;5014420;28;20462;-73
2023/05/07 16:24:18;;;;;;;1.03;1.03;;;17.00;99.90;;;;;;5012786;28;20997;-73
2023/05/07 16:26:45;;;;;;;1.00;1.00;;;17.00;99.90;;;;;;5014598;28;20841;-73
2023/05/07 16:29:12;;;;;;;1.20;1.10;;;16.90;99.90;;;;;;5014394;28;20470;-73
2023/05/07 16:31:38;;;;;;;1.17;1.17;;;17.00;99.90;;;;;;5014112;28;20529;-74
2023/05/07 16:34:05;;;;;;;1.47;1.37;;;17.10;99.90;;;;;;5013128;28;20482;-74
2023/05/07 16:36:32;;;;;;;0.57;0.57;;;17.20;99.90;;;;;;5014412;28;20462;-73
2023/05/07 16:38:59;;;;;;;0.93;0.93;;;17.20;99.90;;;;;;5014422;28;20472;-74
2023/05/07 16:41:26;;;;;;;1.30;1.20;;;17.10;99.90;;;;;;5014018;28;20473;-76
2023/05/07 16:43:53;;;;;;;1.00;1.00;;;16.90;99.90;;;;;;5013527;28;20546;-73
2023/05/07 16:46:19;;;;;;;0.97;0.97;;;16.80;99.90;;;;;;5013748;28;20482;-72
2023/05/07 16:48:46;;;;;;;0.97;0.97;;;16.60;99.90;;;;;;5013506;28;20472;-73
2023/05/07 16:51:13;;;;;;;1.10;1.10;;;16.60;99.90;;;;;;5013966;28;20811;-73